createdAt,value
2018-12-16T00:02:02.555Z,38.30
2018-12-16T00:04:32.312Z,39.07
2018-12-16T00:07:02.023Z,40.13
2018-12-16T00:09:31.857Z,40.00
2018-12-16T00:12:02.159Z,47.90
2018-12-16T00:14:34.093Z,45.60
2018-12-16T00:17:03.954Z,39.97
2018-12-16T00:19:36.807Z,48.03
2018-12-16T00:22:05.979Z,41.60
2018-12-16T00:24:33.537Z,39.40
2018-12-16T00:27:11.545Z,41.10
2018-12-16T00:29:41.209Z,35.60
2018-12-16T00:32:10.917Z,39.87
2018-12-16T00:34:40.741Z,36.83
2018-12-16T00:37:10.548Z,42.20
2018-12-16T00:39:42.491Z,37.90
2018-12-16T00:42:12.459Z,35.57
2018-12-16T00:44:46.263Z,38.10
2018-12-16T00:47:16.013Z,40.53
2018-12-16T00:49:47.988Z,37.63
2018-12-16T00:52:16.598Z,40.67
2018-12-16T00:54:46.453Z,41.17
2018-12-16T00:57:19.835Z,40.93
2018-12-16T00:59:52.788Z,40.03
2018-12-16T01:02:40.340Z,38.33
2018-12-16T01:05:10.159Z,34.90
2018-12-16T01:07:40.406Z,39.10
2018-12-16T01:10:11.011Z,43.03
2018-12-16T01:12:40.659Z,40.60
2018-12-16T01:15:10.335Z,38.73
2018-12-16T01:17:40.297Z,39.20
2018-12-16T01:20:13.075Z,42.63
2018-12-16T01:22:43.784Z,40.17
2018-12-16T01:25:13.023Z,45.73
2018-12-16T01:27:42.901Z,44.83
2018-12-16T01:30:14.974Z,38.33
2018-12-16T01:32:42.431Z,39.97
2018-12-16T01:35:13.955Z,40.10
2018-12-16T01:37:41.779Z,43.47
2018-12-16T01:40:11.688Z,36.93
2018-12-16T01:42:41.313Z,43.93
2018-12-16T01:45:11.357Z,43.43
2018-12-16T01:47:40.997Z,40.07
2018-12-16T01:50:11.048Z,39.53
2018-12-16T01:52:40.859Z,44.50
2018-12-16T01:55:10.772Z,51.20
2018-12-16T01:57:40.677Z,44.17
2018-12-16T02:00:11.877Z,42.80
2018-12-16T02:02:41.579Z,43.33
2018-12-16T02:05:11.307Z,42.00
2018-12-16T02:07:41.019Z,42.60
2018-12-16T02:10:13.383Z,42.80
2018-12-16T02:12:40.464Z,40.83
2018-12-16T02:15:10.195Z,41.73
2018-12-16T02:17:40.009Z,48.47
2018-12-16T02:20:09.719Z,40.50
2018-12-16T02:22:39.495Z,45.37
2018-12-16T02:25:09.647Z,41.77
2018-12-16T02:27:39.873Z,43.57
2018-12-16T02:30:28.648Z,48.10
2018-12-16T02:33:03.644Z,45.90
2018-12-16T02:35:36.331Z,46.80
2018-12-16T02:38:06.007Z,40.43
2018-12-16T02:40:36.071Z,39.53
2018-12-16T02:43:05.892Z,41.57
2018-12-16T02:45:35.759Z,43.43
2018-12-16T02:48:08.207Z,40.03
2018-12-16T02:50:35.293Z,40.77
2018-12-16T02:53:05.669Z,43.27
2018-12-16T02:55:35.351Z,43.87
2018-12-16T02:58:05.030Z,40.30
2018-12-16T03:00:34.803Z,39.53
2018-12-16T03:03:04.545Z,39.73
2018-12-16T03:05:34.883Z,40.20
2018-12-16T03:08:04.579Z,41.57
2018-12-16T03:10:37.289Z,48.23
2018-12-16T03:13:06.981Z,50.07
2018-12-16T03:15:36.836Z,45.43
2018-12-16T03:18:06.672Z,42.17
2018-12-16T03:20:36.770Z,46.77
2018-12-16T03:23:12.159Z,45.73
2018-12-16T03:25:36.511Z,45.20
2018-12-16T03:28:06.117Z,41.20
2018-12-16T03:30:35.791Z,45.87
2018-12-16T03:33:05.671Z,43.27
2018-12-16T03:35:35.235Z,45.50
2018-12-16T03:38:04.913Z,45.77
2018-12-16T03:40:35.141Z,48.27
2018-12-16T03:43:04.760Z,47.40
2018-12-16T03:45:34.503Z,46.37
2018-12-16T03:48:04.016Z,46.10
2018-12-16T03:50:34.069Z,43.83
2018-12-16T03:53:03.657Z,45.77
2018-12-16T03:55:33.481Z,45.23
2018-12-16T03:58:03.413Z,43.50
2018-12-16T04:00:33.317Z,47.13
2018-12-16T04:03:03.309Z,49.60
2018-12-16T04:05:33.164Z,46.43
2018-12-16T04:08:06.434Z,43.93
2018-12-16T04:10:33.143Z,46.53
2018-12-16T04:13:02.774Z,45.50
2018-12-16T04:15:35.231Z,43.53
2018-12-16T04:18:05.135Z,44.67
2018-12-16T04:20:37.835Z,55.77
2018-12-16T04:23:09.745Z,47.63
2018-12-16T04:25:37.427Z,50.90
2018-12-16T04:28:07.504Z,42.30
2018-12-16T04:30:37.661Z,49.10
2018-12-16T04:33:07.329Z,38.77
2018-12-16T04:35:40.246Z,42.43
2018-12-16T04:38:13.127Z,50.03
2018-12-16T04:40:43.019Z,46.80
2018-12-16T04:43:18.559Z,50.43
2018-12-16T04:45:48.801Z,48.10
2018-12-16T04:48:18.511Z,47.77
2018-12-16T04:50:48.424Z,42.87
2018-12-16T04:53:18.666Z,46.90
2018-12-16T04:55:48.543Z,44.73
2018-12-16T04:58:18.601Z,47.67
2018-12-16T05:00:48.822Z,47.37
2018-12-16T05:03:18.681Z,47.83
2018-12-16T05:05:51.615Z,44.40
2018-12-16T05:08:24.347Z,50.07
2018-12-16T05:10:56.161Z,44.83
2018-12-16T05:13:28.715Z,43.73
2018-12-16T05:15:58.849Z,45.40
2018-12-16T05:18:31.543Z,49.10
2018-12-16T05:21:01.763Z,44.97
2018-12-16T05:23:31.678Z,48.63
2018-12-16T05:26:01.551Z,49.37
2018-12-16T05:28:33.351Z,41.13
2018-12-16T05:31:05.997Z,45.00
2018-12-16T05:33:37.956Z,45.73
2018-12-16T05:36:08.162Z,44.17
2018-12-16T05:38:40.731Z,48.70
2018-12-16T05:41:13.627Z,47.33
2018-12-16T05:43:43.421Z,46.00
2018-12-16T05:46:13.967Z,42.83
2018-12-16T05:48:46.598Z,41.23
2018-12-16T05:51:13.829Z,45.27
2018-12-16T05:53:48.959Z,41.77
2018-12-16T05:56:16.842Z,42.80
2018-12-16T05:58:47.024Z,42.67
2018-12-16T06:01:16.642Z,45.63
2018-12-16T06:03:47.052Z,48.37
2018-12-16T06:06:20.061Z,42.73
2018-12-16T06:08:50.027Z,41.27
2018-12-16T06:11:19.944Z,44.00
2018-12-16T06:13:51.802Z,42.37
2018-12-16T06:16:24.229Z,38.60
2018-12-16T06:18:53.987Z,41.33
2018-12-16T06:21:26.671Z,42.47
2018-12-16T06:23:56.507Z,45.73
2018-12-16T06:26:29.005Z,42.47
2018-12-16T06:29:00.925Z,41.03
2018-12-16T06:31:32.997Z,42.73
2018-12-16T06:34:03.077Z,40.87
2018-12-16T06:36:33.328Z,37.83
2018-12-16T06:39:04.347Z,43.50
2018-12-16T06:41:34.533Z,40.23
2018-12-16T06:44:04.331Z,43.07
2018-12-16T06:46:34.525Z,39.47
2018-12-16T06:49:04.768Z,41.10
2018-12-16T06:51:34.863Z,39.60
2018-12-16T06:54:06.990Z,42.00
2018-12-16T06:56:37.162Z,42.57
2018-12-16T06:59:07.323Z,39.80
2018-12-16T07:07:19.153Z,36.87
2018-12-16T07:09:48.454Z,38.53
2018-12-16T07:12:17.755Z,35.63
2018-12-16T07:14:47.066Z,37.60
2018-12-16T07:19:45.706Z,40.67
2018-12-16T07:22:14.962Z,36.47
2018-12-16T07:24:44.268Z,43.50
2018-12-16T07:27:16.060Z,41.73
2018-12-16T07:29:45.431Z,39.67
2018-12-16T07:32:14.823Z,42.33
2018-12-16T07:34:44.059Z,40.10
2018-12-16T07:37:19.051Z,39.60
2018-12-16T07:39:42.717Z,41.30
2018-12-16T07:42:12.108Z,37.30
2018-12-16T07:44:41.391Z,48.10
2018-12-16T07:47:10.682Z,36.20
2018-12-16T07:49:40.123Z,41.30
2018-12-16T07:52:09.492Z,44.23
2018-12-16T07:54:38.899Z,45.27
2018-12-16T07:57:08.233Z,43.53
2018-12-16T07:59:37.630Z,42.70
2018-12-16T08:02:07.010Z,42.87
2018-12-16T08:04:36.362Z,45.97
2018-12-16T08:07:05.659Z,44.37
2018-12-16T08:09:35.042Z,40.30
2018-12-16T08:12:04.565Z,48.80
2018-12-16T08:14:33.864Z,38.57
2018-12-16T08:17:03.172Z,42.13
2018-12-16T08:19:32.555Z,33.17
2018-12-16T08:22:01.866Z,39.70
2018-12-16T08:24:31.145Z,40.87
2018-12-16T08:27:00.580Z,44.03
2018-12-16T08:29:29.882Z,38.90
2018-12-16T08:31:59.542Z,36.23
2018-12-16T08:34:28.847Z,37.73
2018-12-16T08:36:58.186Z,41.87
2018-12-16T08:39:27.499Z,40.40
2018-12-16T08:41:56.928Z,42.83
2018-12-16T08:44:26.290Z,40.27
2018-12-16T08:46:55.541Z,45.57
2018-12-16T08:49:24.897Z,46.43
2018-12-16T08:51:54.429Z,37.93
2018-12-16T08:54:29.932Z,37.40
2018-12-16T08:56:53.469Z,36.73
2018-12-16T08:59:23.045Z,38.50
2018-12-16T09:01:52.303Z,37.67
2018-12-16T09:04:21.689Z,36.57
2018-12-16T09:06:51.034Z,34.53
2018-12-16T09:09:20.393Z,38.73
2018-12-16T09:11:49.684Z,35.93
2018-12-16T09:14:19.038Z,37.00
2018-12-16T09:16:48.370Z,38.77
2018-12-16T09:19:17.638Z,35.53
2018-12-16T09:21:46.948Z,35.97
2018-12-16T09:24:16.249Z,38.67
2018-12-16T09:26:45.500Z,38.47
2018-12-16T09:29:14.818Z,36.40
2018-12-16T09:31:44.233Z,36.93
2018-12-16T09:34:13.654Z,49.07
2018-12-16T09:36:42.894Z,48.40
2018-12-16T09:39:12.227Z,35.77
2018-12-16T09:41:41.537Z,35.97
2018-12-16T09:44:10.844Z,32.77
2018-12-16T09:46:40.144Z,34.03
2018-12-16T09:49:09.489Z,32.20
2018-12-16T09:51:38.791Z,32.93
2018-12-16T09:54:08.134Z,34.00
2018-12-16T09:56:37.468Z,31.27
2018-12-16T09:59:06.951Z,31.70
2018-12-16T10:01:36.251Z,32.33
2018-12-16T10:04:05.658Z,35.43
2018-12-16T10:06:35.033Z,31.67
2018-12-16T10:09:06.254Z,32.23
2018-12-16T10:11:35.581Z,32.40
2018-12-16T10:14:05.087Z,33.83
2018-12-16T10:16:34.410Z,38.70
2018-12-16T10:19:03.731Z,46.53
2018-12-16T10:21:33.105Z,44.43
2018-12-16T10:24:02.421Z,31.43
2018-12-16T10:26:31.797Z,35.03
2018-12-16T10:29:01.225Z,29.60
2018-12-16T10:31:32.123Z,33.27
2018-12-16T10:33:59.864Z,32.30
2018-12-16T10:36:29.223Z,31.40
2018-12-16T10:38:58.533Z,29.13
2018-12-16T10:41:27.827Z,32.40
2018-12-16T10:43:57.185Z,33.43
2018-12-16T10:46:26.525Z,33.07
2018-12-16T10:48:55.922Z,34.90
2018-12-16T10:51:25.245Z,34.87
2018-12-16T10:53:54.571Z,33.30
2018-12-16T10:56:23.871Z,30.43
2018-12-16T10:58:53.270Z,30.67
2018-12-16T11:01:28.608Z,31.23
2018-12-16T11:03:58.264Z,30.03
2018-12-16T11:06:27.582Z,31.13
2018-12-16T11:08:56.913Z,30.57
2018-12-16T11:11:26.195Z,30.57
2018-12-16T11:13:55.661Z,28.23
2018-12-16T11:16:24.943Z,29.37
2018-12-16T11:18:54.280Z,28.73
2018-12-16T11:21:23.712Z,30.70
2018-12-16T11:23:53.980Z,29.43
2018-12-16T11:26:22.366Z,30.53
2018-12-16T11:28:51.670Z,27.03
2018-12-16T11:31:21.004Z,28.33
2018-12-16T11:33:50.440Z,22.63
2018-12-16T11:36:19.799Z,42.30
2018-12-16T11:38:49.197Z,32.63
2018-12-16T11:41:18.640Z,25.77
2018-12-16T11:43:48.282Z,27.50
2018-12-16T11:46:17.562Z,21.37
2018-12-16T11:48:46.958Z,23.97
2018-12-16T11:51:16.353Z,22.03
2018-12-16T11:53:45.687Z,28.23
2018-12-16T11:56:17.295Z,22.17
2018-12-16T11:58:46.593Z,24.80
2018-12-16T12:01:15.886Z,24.63
2018-12-16T12:03:45.206Z,23.73
2018-12-16T12:06:14.525Z,24.73
2018-12-16T12:08:43.827Z,25.70
2018-12-16T12:11:13.360Z,25.50
2018-12-16T12:13:42.662Z,22.50
2018-12-16T12:16:12.028Z,23.57
2018-12-16T12:18:41.410Z,24.87
2018-12-16T12:21:10.730Z,23.67
2018-12-16T12:23:40.044Z,24.17
2018-12-16T12:26:09.358Z,24.03
2018-12-16T12:28:38.932Z,24.90
2018-12-16T12:31:08.291Z,25.87
2018-12-16T12:33:37.610Z,26.87
2018-12-16T12:36:06.896Z,27.00
2018-12-16T12:38:36.206Z,25.80
2018-12-16T12:41:05.658Z,24.20
2018-12-16T12:43:34.967Z,26.63
2018-12-16T12:46:04.269Z,25.13
2018-12-16T12:48:33.593Z,23.87
2018-12-16T12:51:21.372Z,26.27
2018-12-16T12:53:50.908Z,26.53
2018-12-16T12:56:20.154Z,26.80
2018-12-16T12:58:49.453Z,25.33
2018-12-16T13:01:18.779Z,25.70
2018-12-16T13:03:48.068Z,25.77
2018-12-16T13:06:17.771Z,27.30
2018-12-16T13:08:47.086Z,29.50
2018-12-16T13:11:16.376Z,23.47
2018-12-16T13:13:45.776Z,25.93
2018-12-16T13:16:15.119Z,27.40
2018-12-16T13:18:44.397Z,28.77
2018-12-16T13:21:14.034Z,28.00
2018-12-16T13:23:43.435Z,32.17
2018-12-16T13:26:12.718Z,26.67
2018-12-16T13:28:42.143Z,29.10
2018-12-16T13:31:11.532Z,26.93
2018-12-16T13:33:41.212Z,25.67
2018-12-16T13:36:11.160Z,28.03
2018-12-16T13:38:40.602Z,27.50
2018-12-16T13:41:10.016Z,26.97
2018-12-16T13:43:39.389Z,25.90
2018-12-16T13:46:08.680Z,25.77
2018-12-16T13:48:38.443Z,25.97
2018-12-16T13:51:07.803Z,27.47
2018-12-16T13:53:39.710Z,26.70
2018-12-16T13:56:09.072Z,27.30
2018-12-16T13:58:38.466Z,28.07
2018-12-16T14:01:07.881Z,30.33
2018-12-16T14:03:37.285Z,27.03
2018-12-16T14:06:08.958Z,32.23
2018-12-16T14:08:38.259Z,25.03
2018-12-16T14:11:07.632Z,25.63
2018-12-16T14:13:37.012Z,26.93
2018-12-16T14:16:11.048Z,27.03
2018-12-16T14:18:43.366Z,26.53
2018-12-16T14:21:12.716Z,25.63
2018-12-16T14:23:41.998Z,27.63
2018-12-16T14:26:11.798Z,24.60
2018-12-16T14:28:41.087Z,24.70
2018-12-16T14:31:12.189Z,29.57
2018-12-16T14:33:41.479Z,26.90
2018-12-16T14:36:10.781Z,27.90
2018-12-16T14:38:40.511Z,27.80
2018-12-16T14:41:09.915Z,31.30
2018-12-16T14:43:39.249Z,26.10
2018-12-16T14:46:13.114Z,26.73
2018-12-16T14:48:42.593Z,30.80
2018-12-16T14:51:11.919Z,28.77
2018-12-16T14:53:41.204Z,27.97
2018-12-16T14:56:10.503Z,30.77
2018-12-16T14:58:39.796Z,27.40
2018-12-16T15:01:11.604Z,28.60
2018-12-16T15:03:40.960Z,28.77
2018-12-16T15:06:10.240Z,28.47
2018-12-16T15:08:39.615Z,29.40
2018-12-16T15:11:08.962Z,30.63
2018-12-16T15:13:42.384Z,28.93
2018-12-16T15:16:10.277Z,29.50
2018-12-16T15:18:38.993Z,30.80
2018-12-16T15:21:08.317Z,27.57
2018-12-16T15:23:39.798Z,30.47
2018-12-16T15:26:07.017Z,32.37
2018-12-16T15:28:36.311Z,27.63
2018-12-16T15:31:05.620Z,28.57
2018-12-16T15:33:34.890Z,30.20
2018-12-16T15:36:04.226Z,33.87
2018-12-16T15:38:33.530Z,32.53
2018-12-16T15:44:31.975Z,30.33
2018-12-16T15:47:01.229Z,28.03
2018-12-16T15:49:30.568Z,30.67
2018-12-16T15:51:59.840Z,32.30
2018-12-16T15:54:31.249Z,30.97
2018-12-16T15:57:00.532Z,35.37
2018-12-16T15:59:29.990Z,34.40
2018-12-16T16:01:59.318Z,34.27
2018-12-16T16:04:28.624Z,33.50
2018-12-16T16:06:57.949Z,35.30
2018-12-16T16:09:27.249Z,33.50
2018-12-16T16:11:56.598Z,35.57
2018-12-16T16:14:25.939Z,40.03
2018-12-16T16:16:55.328Z,31.40
2018-12-16T16:19:24.714Z,36.13
2018-12-16T16:21:54.084Z,35.37
2018-12-16T16:24:23.401Z,37.13
2018-12-16T16:26:52.712Z,37.13
2018-12-16T16:29:22.018Z,35.63
2018-12-16T16:31:51.378Z,36.83
2018-12-16T16:34:23.438Z,31.90
2018-12-16T16:36:52.759Z,33.93
2018-12-16T16:39:22.035Z,37.50
2018-12-16T16:41:51.440Z,33.57
2018-12-16T16:44:20.796Z,34.73
2018-12-16T16:46:50.113Z,34.13
2018-12-16T16:49:19.440Z,33.03
2018-12-16T16:51:48.781Z,35.93
2018-12-16T16:54:23.846Z,32.90
2018-12-16T16:56:53.163Z,34.53
2018-12-16T16:59:22.541Z,32.40
2018-12-16T17:01:51.812Z,34.73
2018-12-16T17:04:21.173Z,34.83
2018-12-16T17:06:50.548Z,34.27
2018-12-16T17:09:19.880Z,36.07
2018-12-16T17:11:49.201Z,36.73
2018-12-16T17:14:18.544Z,37.30
2018-12-16T17:16:47.855Z,33.07
2018-12-16T17:19:17.169Z,33.53
2018-12-16T17:21:46.486Z,33.93
2018-12-16T17:24:24.594Z,32.67
2018-12-16T17:26:53.965Z,31.83
2018-12-16T17:29:23.329Z,34.03
2018-12-16T17:31:52.756Z,33.53
2018-12-16T17:34:22.087Z,35.13
2018-12-16T17:36:52.055Z,35.47
2018-12-16T17:39:21.425Z,35.80
2018-12-16T17:41:50.712Z,34.97
2018-12-16T17:44:20.117Z,33.47
2018-12-16T17:46:49.403Z,37.00
2018-12-16T17:49:18.725Z,33.77
2018-12-16T17:51:48.100Z,35.80
2018-12-16T17:54:17.541Z,35.07
2018-12-16T17:56:46.911Z,35.77
2018-12-16T17:59:18.077Z,34.97
2018-12-16T18:01:45.592Z,34.73
2018-12-16T18:04:14.944Z,40.27
2018-12-16T18:06:44.273Z,38.03
2018-12-16T18:09:13.815Z,37.53
2018-12-16T18:11:43.224Z,37.83
2018-12-16T18:14:12.513Z,41.17
2018-12-16T18:16:41.899Z,35.33
2018-12-16T18:19:11.414Z,41.67
2018-12-16T18:21:43.153Z,35.00
2018-12-16T18:24:12.744Z,39.43
2018-12-16T18:26:44.200Z,37.97
2018-12-16T18:29:11.435Z,41.83
2018-12-16T18:31:40.816Z,35.40
2018-12-16T18:34:10.243Z,39.73
2018-12-16T18:36:39.781Z,37.90
2018-12-16T18:39:09.887Z,41.40
2018-12-16T18:41:39.276Z,42.80
2018-12-16T18:44:08.548Z,39.77
2018-12-16T18:46:37.872Z,37.80
2018-12-16T18:49:07.919Z,38.50
2018-12-16T18:51:36.547Z,43.03
2018-12-16T18:54:05.962Z,42.77
2018-12-16T18:56:35.355Z,42.10
2018-12-16T18:59:04.643Z,43.50
2018-12-16T19:01:33.980Z,44.87
2018-12-16T19:04:06.705Z,41.93
2018-12-16T19:06:39.112Z,44.40
2018-12-16T19:09:08.816Z,44.23
2018-12-16T19:11:38.144Z,45.50
2018-12-16T19:14:07.532Z,47.80
2018-12-16T19:16:37.018Z,42.47
2018-12-16T19:19:06.416Z,44.27
2018-12-16T19:21:38.448Z,43.33
2018-12-16T19:24:07.774Z,47.93
2018-12-16T19:26:37.124Z,42.87
2018-12-16T19:29:06.516Z,48.00
2018-12-16T19:31:35.980Z,47.27
2018-12-16T19:34:05.230Z,41.67
2018-12-16T19:36:34.547Z,46.13
2018-12-16T19:39:04.234Z,43.33
2018-12-16T19:41:33.642Z,45.70
2018-12-16T19:44:03.123Z,44.07
2018-12-16T19:46:32.479Z,44.40
2018-12-16T19:49:01.765Z,43.40
2018-12-16T19:51:31.174Z,46.13
2018-12-16T19:54:00.636Z,44.57
2018-12-16T19:56:30.071Z,43.93
2018-12-16T19:58:59.413Z,45.90
2018-12-16T20:01:29.071Z,45.17
2018-12-16T20:04:20.314Z,52.77
2018-12-16T20:06:49.726Z,45.03
2018-12-16T20:09:19.168Z,47.83
2018-12-16T20:11:48.552Z,50.23
2018-12-16T20:14:17.992Z,46.90
2018-12-16T20:16:47.448Z,51.80
2018-12-16T20:19:16.818Z,48.73
2018-12-16T20:21:46.213Z,49.77
2018-12-16T20:24:15.514Z,47.50
2018-12-16T20:26:44.844Z,56.10
2018-12-16T20:29:16.874Z,50.07
2018-12-16T20:31:45.824Z,48.27
2018-12-16T20:34:15.184Z,52.07
2018-12-16T20:36:44.513Z,53.63
2018-12-16T20:39:13.901Z,46.23
2018-12-16T20:41:43.254Z,53.10
2018-12-16T20:44:12.579Z,52.90
2018-12-16T20:46:41.930Z,56.37
2018-12-16T20:49:11.280Z,51.80
2018-12-16T20:51:40.594Z,50.27
2018-12-16T20:54:09.962Z,51.80
2018-12-16T20:56:39.392Z,49.37
2018-12-16T20:59:08.730Z,50.43
2018-12-16T21:01:38.112Z,46.70
2018-12-16T21:04:07.469Z,53.10
2018-12-16T21:06:36.817Z,48.70
2018-12-16T21:09:07.029Z,54.43
2018-12-16T21:11:54.195Z,52.03
2018-12-16T21:14:41.288Z,52.07
2018-12-16T21:17:28.676Z,55.03
2018-12-16T21:20:00.459Z,51.10
2018-12-16T21:22:29.786Z,52.30
2018-12-16T21:24:59.124Z,52.67
2018-12-16T21:27:28.428Z,54.53
2018-12-16T21:29:57.743Z,53.17
2018-12-16T21:32:27.049Z,58.07
2018-12-16T21:34:56.319Z,55.80
2018-12-16T21:37:25.880Z,60.83
2018-12-16T21:39:55.161Z,58.13
2018-12-16T21:42:24.470Z,58.70
2018-12-16T21:44:53.769Z,57.93
2018-12-16T21:47:23.061Z,59.70
2018-12-16T21:49:52.344Z,61.53
2018-12-16T21:52:21.711Z,61.33
2018-12-16T21:54:51.037Z,58.30
2018-12-16T21:57:20.369Z,61.30
2018-12-16T21:59:49.660Z,59.20
2018-12-16T22:02:19.080Z,64.83
2018-12-16T22:04:48.334Z,55.33
2018-12-16T22:07:17.642Z,57.30
2018-12-16T22:09:47.017Z,62.30
2018-12-16T22:12:16.367Z,59.50
2018-12-16T22:14:45.634Z,61.43
2018-12-16T22:17:15.040Z,67.13
2018-12-16T22:19:44.378Z,63.37
2018-12-16T22:22:13.763Z,58.83
2018-12-16T22:24:43.079Z,61.90
2018-12-16T22:27:12.457Z,56.23
2018-12-16T22:29:41.753Z,67.33
2018-12-16T22:32:11.046Z,65.17
2018-12-16T22:34:40.342Z,66.57
2018-12-16T22:37:09.629Z,68.87
2018-12-16T22:39:38.944Z,63.23
2018-12-16T22:42:08.237Z,63.93
2018-12-16T22:44:37.552Z,71.03
2018-12-16T22:47:06.814Z,67.73
2018-12-16T22:49:36.130Z,63.37
2018-12-16T22:52:05.460Z,65.50
2018-12-16T22:54:34.752Z,72.80
2018-12-16T22:57:04.148Z,72.23
2018-12-16T22:59:33.465Z,64.67
2018-12-16T23:02:02.794Z,69.97
2018-12-16T23:04:32.116Z,74.43
2018-12-16T23:07:01.388Z,77.47
2018-12-16T23:09:30.661Z,70.87
2018-12-16T23:11:59.939Z,68.10
2018-12-16T23:14:30.008Z,67.63
2018-12-16T23:16:59.304Z,64.67
2018-12-16T23:19:28.555Z,65.40
2018-12-16T23:21:57.856Z,65.40
2018-12-16T23:24:27.159Z,60.80
2018-12-16T23:26:56.557Z,69.00
2018-12-16T23:29:25.841Z,62.10
2018-12-16T23:31:55.105Z,65.23
2018-12-16T23:34:24.388Z,63.17
2018-12-16T23:36:53.669Z,63.57
2018-12-16T23:39:22.939Z,64.57
2018-12-16T23:41:52.242Z,65.50
2018-12-16T23:44:21.489Z,63.00
2018-12-16T23:46:50.859Z,64.37
2018-12-16T23:49:20.222Z,66.10
2018-12-16T23:51:49.503Z,64.47
2018-12-16T23:54:18.755Z,62.83
2018-12-16T23:56:48.148Z,60.33
2018-12-16T23:59:17.464Z,61.20
